Time;durP1;ratioP1;P1;durP2;ratioP2;P2;SDS_P1;SDS_P2;PMS_P1;PMS_P2;Temp;Humidity;BMP_temperature;BMP_pressure;BME280_temperature;BME280_humidity;BME280_pressure;Samples;Min_cycle;Max_cycle;Signal;HPM_P1;HPM_P2
2021/12/02 00:01:55;;;;;;;1.40;1.30;;;6.20;99.90;;;;;;5085441;28;20251;-62
2021/12/02 00:04:20;;;;;;;1.10;1.00;;;6.20;99.90;;;;;;5073410;28;20276;-62
2021/12/02 00:06:46;;;;;;;1.10;0.93;;;6.20;99.90;;;;;;5077403;28;20272;-62
2021/12/02 00:09:11;;;;;;;1.10;1.00;;;6.20;99.90;;;;;;5076354;28;20181;-62
2021/12/02 00:11:37;;;;;;;1.60;1.50;;;6.30;99.90;;;;;;5076929;28;20189;-62
2021/12/02 00:14:09;;;;;;;3.80;1.13;;;6.20;99.90;;;;;;5054841;28;20243;-62
2021/12/02 00:16:52;;;;;;;1.35;1.25;;;6.30;99.90;;;;;;5075032;28;20268;-62
2021/12/02 00:22:04;;;;;;;1.25;1.05;;;6.30;99.90;;;;;;5064479;28;20283;-62
2021/12/02 00:24:34;;;;;;;1.80;1.20;;;6.30;99.90;;;;;;5088005;28;20220;-62
2021/12/02 00:27:00;;;;;;;3.60;1.30;;;6.40;99.90;;;;;;5074433;28;20178;-62
2021/12/02 00:29:29;;;;;;;1.25;1.15;;;6.40;99.90;;;;;;5073867;28;20268;-62
2021/12/02 00:31:54;;;;;;;2.70;1.40;;;6.30;99.90;;;;;;5070470;28;20174;-62
2021/12/02 00:34:22;;;;;;;1.23;1.13;;;6.30;99.90;;;;;;5070627;28;20270;-61
2021/12/02 00:36:48;;;;;;;1.30;1.20;;;6.30;99.90;;;;;;5070616;28;20616;-62
2021/12/02 00:39:19;;;;;;;3.27;1.50;;;6.10;99.90;;;;;;5070846;28;20220;-61
2021/12/02 00:41:45;;;;;;;2.17;1.27;;;6.10;99.90;;;;;;5069627;28;21011;-62
2021/12/02 00:44:13;;;;;;;1.48;1.35;;;6.10;99.90;;;;;;5070956;28;20504;-62
2021/12/02 00:46:39;;;;;;;2.13;1.20;;;6.00;99.90;;;;;;5071573;28;20217;-62
2021/12/02 00:49:10;;;;;;;1.50;1.40;;;6.00;99.90;;;;;;5053318;28;20247;-62
2021/12/02 00:51:36;;;;;;;1.40;1.30;;;6.00;99.90;;;;;;5069589;28;20174;-61
2021/12/02 00:54:05;;;;;;;1.40;1.30;;;6.10;99.90;;;;;;5070244;28;20272;-62
2021/12/02 00:56:31;;;;;;;1.40;1.30;;;6.00;99.90;;;;;;5071204;28;20224;-61
2021/12/02 00:58:56;;;;;;;1.50;1.40;;;6.00;99.90;;;;;;5070088;28;20185;-62
2021/12/02 01:01:24;;;;;;;1.43;1.33;;;6.00;99.90;;;;;;5070485;28;20228;-61
2021/12/02 01:03:53;;;;;;;2.55;1.52;;;6.10;99.90;;;;;;5071046;28;20174;-61
2021/12/02 01:06:19;;;;;;;1.40;1.30;;;6.10;99.90;;;;;;5069452;28;20185;-62
2021/12/02 01:08:45;;;;;;;1.40;1.30;;;6.10;99.90;;;;;;5071220;28;20203;-61
2021/12/02 01:11:12;;;;;;;2.77;1.40;;;6.20;99.90;;;;;;5064057;28;20534;-61
2021/12/02 01:13:38;;;;;;;1.92;1.70;;;6.10;99.90;;;;;;5074335;28;20223;-61
2021/12/02 01:16:04;;;;;;;1.40;1.30;;;6.20;99.90;;;;;;5077478;28;20193;-62
2021/12/02 01:18:29;;;;;;;2.95;1.92;;;6.20;99.90;;;;;;5080027;28;20189;-61
2021/12/02 01:20:55;;;;;;;3.47;1.50;;;6.20;99.90;;;;;;5076057;28;20215;-62
2021/12/02 01:23:23;;;;;;;1.80;1.70;;;6.30;99.90;;;;;;5072098;28;20256;-62
2021/12/02 01:25:55;;;;;;;1.48;1.30;;;6.20;99.90;;;;;;5060313;28;20715;-64
2021/12/02 01:28:23;;;;;;;1.40;1.30;;;6.30;99.90;;;;;;5075670;28;20189;-62
2021/12/02 01:30:50;;;;;;;1.88;1.77;;;6.30;99.90;;;;;;5070260;28;20192;-62
2021/12/02 01:33:19;;;;;;;1.80;1.50;;;6.30;99.90;;;;;;5073304;28;20274;-64
2021/12/02 01:35:49;;;;;;;1.92;1.63;;;6.30;99.90;;;;;;5085367;28;20656;-61
2021/12/02 01:38:15;;;;;;;2.40;1.67;;;6.30;99.90;;;;;;5068391;28;20703;-62
2021/12/02 01:40:43;;;;;;;1.90;1.80;;;6.40;99.90;;;;;;5072122;28;20220;-62
2021/12/02 01:43:14;;;;;;;2.95;1.70;;;6.30;99.90;;;;;;5073623;28;20178;-62
2021/12/02 01:45:40;;;;;;;3.13;1.67;;;6.30;99.90;;;;;;5085714;28;20881;-61
2021/12/02 01:48:10;;;;;;;2.45;2.00;;;6.30;99.90;;;;;;5073158;28;20223;-62
2021/12/02 01:50:39;;;;;;;1.70;1.60;;;6.20;99.90;;;;;;5070767;28;20209;-62
2021/12/02 01:53:06;;;;;;;5.35;1.70;;;6.20;99.90;;;;;;5074009;28;20189;-61
2021/12/02 01:55:35;;;;;;;1.80;1.70;;;6.20;99.90;;;;;;5068427;28;20197;-62
2021/12/02 01:58:04;;;;;;;2.65;1.65;;;6.20;99.90;;;;;;5078195;28;20190;-62
2021/12/02 02:00:41;;;;;;;3.60;1.70;;;6.10;99.90;;;;;;5077286;28;20197;-62
2021/12/02 02:03:11;;;;;;;1.50;1.40;;;6.10;99.90;;;;;;5067401;28;20177;-61
2021/12/02 02:05:38;;;;;;;1.98;1.88;;;6.10;99.90;;;;;;5071623;28;20173;-61
2021/12/02 02:08:09;;;;;;;2.00;1.70;;;6.10;99.90;;;;;;5080925;28;20691;-61
2021/12/02 02:10:40;;;;;;;2.10;1.60;;;6.10;99.90;;;;;;5078306;28;20186;-62
2021/12/02 02:13:08;;;;;;;3.03;1.45;;;6.10;99.90;;;;;;5060660;28;20192;-61
2021/12/02 02:15:35;;;;;;;3.67;1.73;;;6.10;99.90;;;;;;5076554;28;20189;-59
2021/12/02 02:18:23;;;;;;;2.50;1.65;;;6.00;99.90;;;;;;5073679;28;20185;-61
2021/12/02 02:21:00;;;;;;;1.73;1.63;;;6.10;99.90;;;;;;5086787;28;20224;-62
2021/12/02 02:23:29;;;;;;;2.05;1.77;;;6.00;99.90;;;;;;5068414;28;20214;-62
2021/12/02 02:25:56;;;;;;;1.80;1.70;;;6.00;99.90;;;;;;5069056;28;20542;-63
2021/12/02 02:28:21;;;;;;;1.98;1.60;;;6.00;99.90;;;;;;5066469;28;20182;-61
2021/12/02 02:30:47;;;;;;;1.57;1.47;;;6.00;99.90;;;;;;5051503;28;20192;-61
2021/12/02 02:33:14;;;;;;;1.73;1.63;;;5.90;99.90;;;;;;5067834;28;20439;-61
2021/12/02 02:35:41;;;;;;;1.58;1.48;;;5.90;99.90;;;;;;5068498;28;20185;-61
2021/12/02 02:38:06;;;;;;;2.30;1.92;;;5.90;99.90;;;;;;5069080;28;20189;-60
2021/12/02 02:40:33;;;;;;;2.60;1.93;;;5.90;99.90;;;;;;5069276;28;20504;-62
2021/12/02 02:43:06;;;;;;;1.92;1.75;;;5.90;99.90;;;;;;5067627;28;20526;-61
2021/12/02 02:45:32;;;;;;;2.85;1.85;;;6.00;99.90;;;;;;5068475;28;20188;-61
2021/12/02 02:47:57;;;;;;;2.47;1.87;;;5.90;99.90;;;;;;5065936;28;20544;-62
2021/12/02 02:50:23;;;;;;;2.37;1.63;;;5.90;99.90;;;;;;5068535;28;20181;-62
2021/12/02 02:52:58;;;;;;;2.00;1.80;;;5.90;99.90;;;;;;5067743;28;20212;-62
2021/12/02 02:55:25;;;;;;;3.13;1.83;;;6.00;99.90;;;;;;5050949;28;20284;-62
2021/12/02 02:58:20;;;;;;;1.98;1.88;;;6.00;99.90;;;;;;5067180;28;20177;-62
2021/12/02 03:01:01;;;;;;;4.15;1.90;;;6.00;99.90;;;;;;5067239;28;20217;-55
2021/12/02 03:06:35;;;;;;;1.90;1.80;;;6.00;99.90;;;;;;5039985;28;20254;-62
2021/12/02 03:09:06;;;;;;;2.50;2.05;;;6.10;99.90;;;;;;5066420;28;20520;-61
2021/12/02 03:17:21;;;;;;;1.90;1.80;;;6.20;99.90;;;;;;5041753;28;20197;-62
2021/12/02 03:19:47;;;;;;;1.87;1.73;;;6.20;99.90;;;;;;5087716;28;20306;-59
2021/12/02 03:22:15;;;;;;;1.98;1.88;;;6.20;99.90;;;;;;5066437;28;20248;-61
2021/12/02 03:24:40;;;;;;;2.13;2.03;;;6.10;99.90;;;;;;5073788;28;20195;-61
2021/12/02 03:27:06;;;;;;;2.30;2.10;;;6.10;99.90;;;;;;5079029;28;20169;-61
2021/12/02 03:29:32;;;;;;;2.37;2.27;;;6.00;99.90;;;;;;5069875;28;20189;-57
2021/12/02 03:31:57;;;;;;;3.00;2.40;;;6.00;99.90;;;;;;5070897;28;20200;-62
2021/12/02 03:34:23;;;;;;;2.00;1.90;;;6.00;99.90;;;;;;5071384;28;20247;-61
2021/12/02 03:36:48;;;;;;;2.10;1.90;;;6.00;99.90;;;;;;5082008;28;20530;-61
2021/12/02 03:39:14;;;;;;;2.37;2.17;;;6.00;99.90;;;;;;5072613;28;20677;-61
2021/12/02 03:41:41;;;;;;;2.50;2.27;;;6.00;99.90;;;;;;5067027;28;20217;-61
2021/12/02 03:44:07;;;;;;;5.40;2.95;;;6.00;99.90;;;;;;5067056;28;20201;-61
2021/12/02 03:46:34;;;;;;;4.18;2.25;;;6.00;99.90;;;;;;5068385;28;20616;-61
2021/12/02 03:49:00;;;;;;;2.03;1.92;;;6.10;99.90;;;;;;5073340;28;20551;-61
2021/12/02 03:51:26;;;;;;;3.60;2.38;;;6.10;99.90;;;;;;5077413;28;20188;-61
2021/12/02 03:53:52;;;;;;;3.13;2.65;;;6.20;99.90;;;;;;5075247;28;20338;-61
2021/12/02 03:56:18;;;;;;;2.42;2.22;;;6.10;99.90;;;;;;5072317;28;20177;-61
2021/12/02 03:58:45;;;;;;;2.60;2.40;;;6.20;99.90;;;;;;5078142;28;20197;-61
2021/12/02 04:01:12;;;;;;;2.30;2.10;;;6.20;99.90;;;;;;5067168;28;20276;-60
2021/12/02 04:03:39;;;;;;;2.10;2.00;;;6.10;99.90;;;;;;5070103;28;20243;-61
2021/12/02 04:06:06;;;;;;;3.40;2.78;;;6.20;99.90;;;;;;5079251;28;20181;-61
2021/12/02 04:08:41;;;;;;;2.45;2.35;;;6.20;99.90;;;;;;5078399;28;20180;-61
2021/12/02 04:11:55;;;;;;;2.90;2.40;;;6.20;99.90;;;;;;5070040;28;20216;-61
2021/12/02 04:16:51;;;;;;;2.60;2.40;;;6.10;99.90;;;;;;5087527;28;20230;-60
2021/12/02 04:19:16;;;;;;;4.63;2.50;;;6.10;99.90;;;;;;5081213;28;20234;-61
2021/12/02 04:21:42;;;;;;;3.10;2.53;;;6.10;99.90;;;;;;5078806;28;20225;-60
2021/12/02 04:24:08;;;;;;;3.10;1.90;;;6.10;99.90;;;;;;5072915;28;20713;-61
2021/12/02 04:26:33;;;;;;;3.87;2.63;;;6.00;99.90;;;;;;5067309;28;20299;-60
2021/12/02 04:28:59;;;;;;;3.00;2.20;;;6.00;99.90;;;;;;5067391;28;20205;-60
2021/12/02 04:31:24;;;;;;;2.93;2.10;;;6.00;99.90;;;;;;5074935;28;20636;-61
2021/12/02 04:33:50;;;;;;;2.90;2.70;;;5.90;99.90;;;;;;5069684;28;20189;-60
2021/12/02 04:36:16;;;;;;;3.17;2.70;;;5.90;99.90;;;;;;5080117;28;20643;-60
2021/12/02 04:38:41;;;;;;;2.90;2.37;;;5.90;99.90;;;;;;5050631;28;20616;-61
2021/12/02 04:41:07;;;;;;;3.60;2.50;;;6.00;99.90;;;;;;5063877;28;20212;-62
2021/12/02 04:43:33;;;;;;;2.80;2.57;;;6.00;99.90;;;;;;5072665;28;20185;-61
2021/12/02 04:45:58;;;;;;;3.17;2.77;;;6.00;99.90;;;;;;5061535;28;20185;-61
2021/12/02 04:48:24;;;;;;;2.10;2.00;;;6.00;99.90;;;;;;5071372;28;20190;-57
2021/12/02 04:50:50;;;;;;;2.60;2.40;;;6.00;99.90;;;;;;5065988;28;20199;-61
2021/12/02 04:53:16;;;;;;;2.50;2.30;;;6.00;99.90;;;;;;5062389;28;20189;-59
2021/12/02 04:55:42;;;;;;;2.97;2.78;;;6.00;99.90;;;;;;5070412;28;20193;-60
2021/12/02 04:58:07;;;;;;;2.70;2.50;;;5.90;99.90;;;;;;5058388;28;20189;-59
2021/12/02 05:00:33;;;;;;;2.60;2.17;;;5.90;99.90;;;;;;5069204;28;20320;-60
2021/12/02 05:02:59;;;;;;;3.67;2.70;;;5.80;99.90;;;;;;5056232;28;20247;-60
2021/12/02 05:05:25;;;;;;;2.40;2.20;;;5.80;99.90;;;;;;5065679;28;20473;-59
2021/12/02 05:07:53;;;;;;;2.50;2.30;;;5.70;99.90;;;;;;5076641;28;20614;-63
2021/12/02 05:10:20;;;;;;;2.83;2.63;;;5.80;99.90;;;;;;5056707;28;20568;-59
2021/12/02 05:12:47;;;;;;;2.90;2.70;;;5.70;99.90;;;;;;5062605;28;20572;-60
2021/12/02 05:15:12;;;;;;;2.65;2.45;;;5.70;99.90;;;;;;5073028;28;20203;-59
2021/12/02 05:17:38;;;;;;;2.73;2.23;;;5.70;99.90;;;;;;5080464;28;20190;-56
2021/12/02 05:20:05;;;;;;;2.50;2.13;;;5.60;99.90;;;;;;5062953;28;20234;-60
2021/12/02 05:22:30;;;;;;;3.75;2.17;;;5.70;99.90;;;;;;5072702;28;20312;-59
2021/12/02 05:24:56;;;;;;;2.93;2.47;;;5.80;99.90;;;;;;5065531;28;20177;-60
2021/12/02 05:27:21;;;;;;;2.87;2.50;;;5.80;99.90;;;;;;5064684;28;20181;-60
2021/12/02 05:29:47;;;;;;;2.50;2.30;;;5.90;99.90;;;;;;5079046;28;20921;-60
2021/12/02 05:32:12;;;;;;;5.60;2.20;;;5.80;99.90;;;;;;5071027;28;20185;-60
2021/12/02 05:34:38;;;;;;;3.13;2.53;;;5.80;99.90;;;;;;5067550;28;20181;-60
2021/12/02 05:37:04;;;;;;;4.23;3.20;;;5.90;99.90;;;;;;5077092;28;20188;-60
2021/12/02 05:39:30;;;;;;;2.57;2.37;;;5.80;99.90;;;;;;5073308;28;20177;-60
2021/12/02 05:41:55;;;;;;;2.30;2.10;;;5.80;99.90;;;;;;5079430;28;20440;-60
2021/12/02 05:44:21;;;;;;;2.63;2.40;;;5.70;99.90;;;;;;5075483;28;20853;-60
2021/12/02 05:46:47;;;;;;;4.30;2.67;;;5.60;99.90;;;;;;5088841;28;20189;-60
2021/12/02 05:49:12;;;;;;;4.07;2.70;;;5.60;99.90;;;;;;5089247;28;20254;-59
2021/12/02 05:51:40;;;;;;;2.83;2.30;;;5.50;99.90;;;;;;5088492;28;20197;-60
2021/12/02 05:54:06;;;;;;;2.53;2.25;;;5.50;99.90;;;;;;5090430;28;20174;-60
2021/12/02 05:56:31;;;;;;;3.20;2.27;;;5.50;99.90;;;;;;5089508;28;20185;-60
2021/12/02 05:58:57;;;;;;;3.13;1.90;;;5.50;99.90;;;;;;5084064;28;20185;-60
2021/12/02 06:01:23;;;;;;;2.30;2.10;;;5.50;99.90;;;;;;5075714;28;20672;-61
2021/12/02 06:03:48;;;;;;;2.50;2.17;;;5.50;99.90;;;;;;5083644;28;20210;-60
2021/12/02 06:06:17;;;;;;;4.80;2.20;;;5.40;99.90;;;;;;5090237;28;20195;-60
2021/12/02 06:08:42;;;;;;;3.65;2.42;;;5.40;99.90;;;;;;5089574;28;20177;-60
2021/12/02 06:11:08;;;;;;;3.10;2.20;;;5.40;99.90;;;;;;5068567;28;20588;-59
2021/12/02 06:13:34;;;;;;;6.63;2.60;;;5.30;99.90;;;;;;5079826;28;20256;-60
2021/12/02 06:15:59;;;;;;;2.70;2.50;;;5.30;99.90;;;;;;5076490;28;20235;-61
2021/12/02 06:18:25;;;;;;;2.40;2.20;;;5.20;99.90;;;;;;5090793;28;20181;-60
2021/12/02 06:20:54;;;;;;;3.70;2.13;;;5.20;99.90;;;;;;5090167;28;20228;-61
2021/12/02 06:23:21;;;;;;;4.28;2.67;;;5.10;99.90;;;;;;5076930;28;20290;-57
2021/12/02 06:25:47;;;;;;;3.05;1.90;;;5.20;99.90;;;;;;5077614;28;20184;-60
2021/12/02 06:28:14;;;;;;;2.95;2.05;;;5.20;99.90;;;;;;5068688;28;20177;-60
2021/12/02 06:30:40;;;;;;;3.03;2.25;;;5.20;99.90;;;;;;5078124;28;20188;-60
2021/12/02 06:33:06;;;;;;;2.30;2.10;;;5.10;99.90;;;;;;5087504;28;20188;-60
2021/12/02 06:35:32;;;;;;;2.40;2.20;;;5.10;99.90;;;;;;5070285;28;20211;-60
2021/12/02 06:37:58;;;;;;;3.72;2.20;;;5.00;99.90;;;;;;5072674;28;20978;-60
2021/12/02 06:40:24;;;;;;;2.10;1.95;;;5.00;99.90;;;;;;5089721;28;20205;-60
2021/12/02 06:42:50;;;;;;;3.63;2.05;;;5.00;99.90;;;;;;5079225;28;20594;-60
2021/12/02 06:45:16;;;;;;;3.30;2.40;;;5.00;99.90;;;;;;5087026;28;20176;-60
2021/12/02 06:47:41;;;;;;;2.57;2.37;;;5.00;99.90;;;;;;5083530;28;20271;-59
2021/12/02 06:50:19;;;;;;;2.30;2.10;;;5.00;99.90;;;;;;5069963;28;20220;-58
2021/12/02 06:52:49;;;;;;;3.47;2.25;;;5.00;99.90;;;;;;5068629;28;20420;-60
2021/12/02 06:55:15;;;;;;;4.38;2.20;;;5.00;99.90;;;;;;5073288;28;20663;-59
2021/12/02 06:57:41;;;;;;;3.40;2.25;;;5.00;99.90;;;;;;5068751;28;20181;-59
2021/12/02 07:00:09;;;;;;;2.90;1.80;;;5.00;99.90;;;;;;5071550;28;20219;-58
2021/12/02 07:02:36;;;;;;;2.50;2.10;;;5.00;99.90;;;;;;5078830;28;20205;-59
2021/12/02 07:05:07;;;;;;;4.13;1.67;;;5.10;99.90;;;;;;5069986;28;20173;-59
2021/12/02 07:07:36;;;;;;;2.65;2.22;;;5.10;99.90;;;;;;5080243;28;20192;-58
2021/12/02 07:10:08;;;;;;;2.05;1.90;;;5.10;99.90;;;;;;5069161;28;20253;-59
2021/12/02 07:12:36;;;;;;;3.00;2.20;;;5.10;99.90;;;;;;5069310;28;20185;-59
2021/12/02 07:15:10;;;;;;;3.88;1.88;;;5.10;99.90;;;;;;5072416;28;20173;-59
2021/12/02 07:17:36;;;;;;;2.40;2.00;;;5.10;99.90;;;;;;5068401;28;20172;-61
2021/12/02 07:20:02;;;;;;;4.10;2.70;;;5.10;99.90;;;;;;5067782;28;20663;-60
2021/12/02 07:22:28;;;;;;;3.60;2.38;;;5.10;99.90;;;;;;5083228;28;20650;-60
2021/12/02 07:24:54;;;;;;;2.00;1.90;;;5.10;99.90;;;;;;5078359;28;20413;-59
2021/12/02 07:27:19;;;;;;;6.47;3.30;;;5.10;99.90;;;;;;5081828;28;20263;-60
2021/12/02 07:29:45;;;;;;;3.27;2.60;;;5.00;99.90;;;;;;5086649;28;20568;-61
2021/12/02 07:32:11;;;;;;;4.83;2.00;;;5.00;99.90;;;;;;5071969;28;20315;-61
2021/12/02 07:34:43;;;;;;;4.40;2.33;;;5.00;99.90;;;;;;5084099;28;20542;-61
2021/12/02 07:37:11;;;;;;;4.28;2.40;;;5.10;99.90;;;;;;5077863;28;20177;-61
2021/12/02 07:39:36;;;;;;;2.53;2.10;;;5.00;99.90;;;;;;5083502;28;20523;-60
2021/12/02 07:42:02;;;;;;;2.00;1.90;;;4.90;99.90;;;;;;5077736;28;20181;-60
2021/12/02 07:44:28;;;;;;;2.20;1.80;;;4.90;99.90;;;;;;5068129;28;20192;-60
2021/12/02 07:46:56;;;;;;;3.03;2.30;;;4.90;99.90;;;;;;5075963;28;20991;-60
2021/12/02 07:49:21;;;;;;;2.50;2.30;;;4.90;99.90;;;;;;5081777;28;20423;-60
2021/12/02 07:51:50;;;;;;;3.50;2.37;;;4.90;99.90;;;;;;5076052;28;20203;-60
2021/12/02 07:54:17;;;;;;;6.15;2.38;;;4.90;99.90;;;;;;5087862;28;20490;-61
2021/12/02 07:56:46;;;;;;;4.57;2.40;;;4.90;99.90;;;;;;5080986;28;20185;-60
2021/12/02 07:59:16;;;;;;;2.55;2.35;;;4.90;99.90;;;;;;5086298;28;20189;-49
2021/12/02 08:01:43;;;;;;;2.53;2.17;;;4.90;99.90;;;;;;5082154;28;20276;-59
2021/12/02 08:04:12;;;;;;;2.72;2.40;;;5.10;99.90;;;;;;5084417;28;20189;-58
2021/12/02 08:06:38;;;;;;;2.90;2.70;;;5.30;99.90;;;;;;5055888;28;20200;-60
2021/12/02 08:09:06;;;;;;;3.00;2.70;;;5.50;99.90;;;;;;5088252;28;20539;-60
2021/12/02 08:11:32;;;;;;;3.25;2.72;;;5.50;99.90;;;;;;5072094;28;20189;-59
2021/12/02 08:13:58;;;;;;;2.58;2.38;;;5.90;99.90;;;;;;5083538;28;20188;-59
2021/12/02 08:16:24;;;;;;;6.07;2.60;;;6.30;99.90;;;;;;5074999;28;20993;-60
2021/12/02 08:18:49;;;;;;;3.03;2.73;;;6.60;99.90;;;;;;5082554;28;20185;-60
2021/12/02 08:21:15;;;;;;;3.30;3.00;;;6.80;99.90;;;;;;5074192;28;20983;-59
2021/12/02 08:23:41;;;;;;;5.07;3.20;;;7.00;99.90;;;;;;5053294;28;20225;-59
2021/12/02 08:26:06;;;;;;;4.50;3.00;;;7.10;99.90;;;;;;5076429;28;20184;-59
2021/12/02 08:28:32;;;;;;;3.10;2.90;;;7.40;99.90;;;;;;5091804;28;20256;-60
2021/12/02 08:30:58;;;;;;;4.70;2.83;;;7.70;99.50;;;;;;5086947;28;20184;-59
2021/12/02 08:33:24;;;;;;;3.00;2.80;;;8.00;98.50;;;;;;5083581;28;20185;-59
2021/12/02 08:35:50;;;;;;;3.57;3.27;;;8.20;96.60;;;;;;5087451;28;20451;-60
2021/12/02 08:38:17;;;;;;;3.20;3.00;;;8.30;95.60;;;;;;5076615;28;20477;-59
2021/12/02 08:40:46;;;;;;;4.40;3.37;;;8.50;94.80;;;;;;5084511;28;20197;-60
2021/12/02 08:43:13;;;;;;;3.10;2.73;;;8.50;94.60;;;;;;5070433;28;20519;-60
2021/12/02 08:45:41;;;;;;;3.80;2.60;;;8.90;93.50;;;;;;5067433;28;20425;-60
2021/12/02 08:48:08;;;;;;;2.90;2.70;;;9.00;92.50;;;;;;5088906;28;20415;-60
2021/12/02 08:50:36;;;;;;;4.30;3.67;;;9.10;92.70;;;;;;5084145;28;20434;-59
2021/12/02 08:53:03;;;;;;;3.77;3.10;;;9.10;92.20;;;;;;5090544;28;20411;-60
2021/12/02 08:55:32;;;;;;;3.50;3.20;;;9.20;91.80;;;;;;5084746;28;20458;-60
2021/12/02 08:57:59;;;;;;;3.37;3.17;;;9.20;91.60;;;;;;5082113;28;20411;-60
2021/12/02 09:00:32;;;;;;;4.80;3.50;;;9.20;91.40;;;;;;5070406;28;20455;-61
2021/12/02 09:02:58;;;;;;;3.60;3.40;;;9.20;91.30;;;;;;5091608;28;20426;-60
2021/12/02 09:05:23;;;;;;;4.50;3.40;;;9.40;91.40;;;;;;5087885;28;20411;-60
2021/12/02 09:07:49;;;;;;;3.80;3.10;;;9.50;91.40;;;;;;5077818;28;20200;-60
2021/12/02 09:10:14;;;;;;;3.13;2.93;;;9.60;90.60;;;;;;5089697;28;20287;-60
2021/12/02 09:12:42;;;;;;;3.10;2.90;;;9.80;90.00;;;;;;5068910;28;20209;-60
2021/12/02 09:15:08;;;;;;;3.80;3.40;;;9.70;90.00;;;;;;5069994;28;20262;-60
2021/12/02 09:17:35;;;;;;;3.40;3.10;;;9.90;89.30;;;;;;5065143;28;21022;-60
2021/12/02 09:20:02;;;;;;;4.43;2.93;;;10.10;86.90;;;;;;5068753;28;20456;-60
2021/12/02 09:22:27;;;;;;;5.00;3.23;;;10.00;87.60;;;;;;5074942;28;20470;-60
2021/12/02 09:24:53;;;;;;;3.70;3.33;;;9.70;86.30;;;;;;5074188;28;20823;-60
2021/12/02 09:27:19;;;;;;;6.20;3.30;;;9.70;88.00;;;;;;5072531;28;20180;-60
2021/12/02 09:29:44;;;;;;;4.77;3.10;;;9.90;83.90;;;;;;5088364;28;20245;-60
2021/12/02 09:32:11;;;;;;;4.17;3.20;;;10.00;84.40;;;;;;5065406;28;20335;-60
2021/12/02 09:34:37;;;;;;;5.37;3.60;;;10.40;82.30;;;;;;5071139;28;20177;-60
2021/12/02 09:37:03;;;;;;;4.13;3.73;;;10.40;81.00;;;;;;5068152;28;20439;-59
2021/12/02 09:39:31;;;;;;;3.60;3.30;;;10.40;79.70;;;;;;5090250;28;20303;-60
2021/12/02 09:41:57;;;;;;;3.20;3.00;;;10.40;81.30;;;;;;5064899;28;20475;-60
2021/12/02 09:44:23;;;;;;;3.77;3.17;;;10.70;82.40;;;;;;5075077;28;20419;-60
2021/12/02 09:46:49;;;;;;;3.53;3.33;;;11.20;79.40;;;;;;5087092;28;22545;-60
2021/12/02 09:49:16;;;;;;;3.97;3.43;;;11.60;78.50;;;;;;5087944;28;20215;-60
2021/12/02 09:54:18;;;;;;;3.97;3.53;;;12.60;72.50;;;;;;5088112;28;20892;-60
2021/12/02 09:56:47;;;;;;;3.60;3.30;;;12.70;99.90;;;;;;5088466;28;20462;-60
2021/12/02 10:02:16;;;;;;;4.53;3.43;;;12.20;99.90;;;;;;5051899;28;20483;-61
2021/12/02 10:04:48;;;;;;;3.57;3.27;;;11.60;99.90;;;;;;5089736;28;20418;-60
2021/12/02 10:07:33;;;;;;;3.90;3.20;;;11.10;99.90;;;;;;5080202;28;20448;-60
2021/12/02 10:10:07;;;;;;;3.70;2.90;;;10.80;99.90;;;;;;5066839;28;20419;-60
2021/12/02 10:12:35;;;;;;;3.60;3.40;;;9.80;99.90;;;;;;5068250;28;20439;-59
2021/12/02 10:15:07;;;;;;;3.30;3.10;;;9.10;99.90;;;;;;5068708;28;20450;-59
2021/12/02 10:17:36;;;;;;;3.80;3.50;;;8.80;99.90;;;;;;5086678;28;20422;-59
2021/12/02 10:23:14;;;;;;;3.97;3.67;;;8.90;99.90;;;;;;5081090;28;20472;-59
2021/12/02 10:25:45;;;;;;;3.60;3.40;;;8.60;99.90;;;;;;5065832;28;20454;-59
2021/12/02 10:28:13;;;;;;;5.13;3.40;;;8.70;99.90;;;;;;5068796;28;20435;-59
2021/12/02 10:30:47;;;;;;;6.47;4.00;;;8.50;99.90;;;;;;5087002;28;21041;-61
2021/12/02 10:33:13;;;;;;;3.60;3.40;;;8.40;99.90;;;;;;5071858;28;20464;-60
2021/12/02 10:35:48;;;;;;;3.57;3.37;;;8.30;99.90;;;;;;5074980;28;20492;-60
2021/12/02 10:38:38;;;;;;;4.30;3.70;;;8.20;99.90;;;;;;5079262;28;20181;-60
2021/12/02 10:41:11;;;;;;;3.57;3.27;;;8.10;99.90;;;;;;5057451;28;21044;-61
2021/12/02 10:44:02;;;;;;;3.30;3.10;;;7.90;99.90;;;;;;5067132;28;20517;-60
2021/12/02 10:46:27;;;;;;;4.17;3.73;;;7.70;99.90;;;;;;5079947;28;20416;-60
2021/12/02 10:48:53;;;;;;;3.67;3.37;;;7.90;99.90;;;;;;5074778;28;20440;-60
2021/12/02 10:51:45;;;;;;;3.73;3.43;;;8.40;99.90;;;;;;5079410;28;20189;-60
2021/12/02 10:54:14;;;;;;;3.30;3.10;;;9.20;99.90;;;;;;5072163;28;20662;-61
2021/12/02 10:56:46;;;;;;;3.70;3.40;;;10.00;99.90;;;;;;5070494;28;20423;-61
2021/12/02 10:59:51;;;;;;;3.20;2.90;;;10.60;99.90;;;;;;5078266;28;21180;-60
2021/12/02 11:02:29;;;;;;;4.03;2.80;;;11.20;99.90;;;;;;4977283;28;20436;-61
2021/12/02 11:04:57;;;;;;;3.30;3.00;;;11.40;99.90;;;;;;5067088;28;20450;-60
2021/12/02 11:07:27;;;;;;;4.17;3.37;;;11.00;99.90;;;;;;5087243;28;21233;-61
2021/12/02 11:09:55;;;;;;;4.03;3.53;;;10.20;99.90;;;;;;5079103;28;20440;-60
2021/12/02 11:12:30;;;;;;;3.60;3.30;;;9.80;99.90;;;;;;5071198;28;20431;-57
2021/12/02 11:14:58;;;;;;;3.30;3.10;;;9.60;99.90;;;;;;5065134;28;20427;-60
2021/12/02 11:17:29;;;;;;;4.03;3.63;;;9.50;99.90;;;;;;5068718;28;20415;-60
2021/12/02 11:19:55;;;;;;;3.60;3.20;;;9.40;99.90;;;;;;5080740;28;20431;-60
2021/12/02 11:22:21;;;;;;;5.67;3.53;;;9.40;99.90;;;;;;5036989;28;20471;-60
2021/12/02 11:24:49;;;;;;;3.87;3.50;;;9.00;99.90;;;;;;5062734;28;20451;-60
2021/12/02 11:27:19;;;;;;;4.10;3.70;;;8.90;99.90;;;;;;5067381;28;20924;-60
2021/12/02 11:29:51;;;;;;;4.13;3.27;;;8.80;99.90;;;;;;5067507;28;20486;-60
2021/12/02 11:32:25;;;;;;;3.70;3.40;;;9.00;99.90;;;;;;5067531;28;20434;-60
2021/12/02 11:35:03;;;;;;;4.03;3.50;;;9.20;99.90;;;;;;5054276;28;20427;-60
2021/12/02 11:37:28;;;;;;;3.50;3.23;;;9.10;99.90;;;;;;5068261;28;20427;-60
2021/12/02 11:39:55;;;;;;;3.23;2.93;;;9.10;99.90;;;;;;5067664;28;21262;-60
2021/12/02 11:42:21;;;;;;;3.37;3.13;;;9.20;99.90;;;;;;5067417;28;20642;-59
2021/12/02 11:44:48;;;;;;;3.83;3.40;;;9.00;99.90;;;;;;5071587;28;20503;-60
2021/12/02 11:47:13;;;;;;;4.03;3.63;;;9.00;99.90;;;;;;5072082;28;20170;-60
2021/12/02 11:49:41;;;;;;;3.50;3.20;;;9.10;99.90;;;;;;5072611;28;20885;-60
2021/12/02 11:52:07;;;;;;;3.73;3.43;;;9.40;99.90;;;;;;5072688;28;20169;-59
2021/12/02 11:54:33;;;;;;;3.53;3.27;;;9.90;99.90;;;;;;5071617;28;20547;-59
2021/12/02 11:56:59;;;;;;;4.83;3.50;;;10.60;99.90;;;;;;5071339;28;20522;-59
2021/12/02 11:59:26;;;;;;;3.20;2.90;;;11.20;99.90;;;;;;5070215;28;20276;-60
2021/12/02 12:01:57;;;;;;;3.90;3.50;;;11.30;99.90;;;;;;5053695;28;20208;-60
2021/12/02 12:04:22;;;;;;;3.77;3.40;;;11.30;99.90;;;;;;5069828;28;20428;-60
2021/12/02 12:07:08;;;;;;;3.40;3.17;;;11.50;99.90;;;;;;5072240;28;20415;-60
2021/12/02 12:09:34;;;;;;;3.60;3.30;;;11.70;99.90;;;;;;5070550;28;20239;-60
2021/12/02 12:12:00;;;;;;;4.10;3.83;;;11.30;99.90;;;;;;5071781;28;20416;-60
2021/12/02 12:14:41;;;;;;;3.93;3.63;;;10.90;99.90;;;;;;5071157;28;20181;-59
2021/12/02 12:17:12;;;;;;;3.40;3.20;;;10.60;99.90;;;;;;5048728;28;20433;-58
2021/12/02 12:19:44;;;;;;;4.43;3.50;;;10.50;99.90;;;;;;5070699;28;20442;-60
2021/12/02 12:22:24;;;;;;;4.20;3.90;;;10.30;99.90;;;;;;5069240;28;20456;-60
2021/12/02 12:24:52;;;;;;;3.60;3.30;;;10.10;99.90;;;;;;5068365;28;20458;-60
2021/12/02 12:27:27;;;;;;;4.10;3.80;;;9.70;99.90;;;;;;5069350;28;20423;-60
2021/12/02 12:30:19;;;;;;;4.03;3.73;;;9.30;99.90;;;;;;5045055;28;20419;-61
2021/12/02 12:33:03;;;;;;;5.13;3.90;;;8.80;99.90;;;;;;5067679;28;20419;-60
2021/12/02 12:35:46;;;;;;;3.80;3.60;;;8.50;99.90;;;;;;5065598;28;20424;-61
2021/12/02 12:38:19;;;;;;;4.67;4.27;;;8.30;99.90;;;;;;5068163;28;20469;-63
2021/12/02 12:40:49;;;;;;;3.90;3.70;;;8.00;99.90;;;;;;5077860;28;20844;-66
2021/12/02 12:43:18;;;;;;;4.10;3.80;;;7.80;99.90;;;;;;5091059;28;20522;-60
2021/12/02 12:45:45;;;;;;;6.80;3.70;;;7.70;99.90;;;;;;5090154;28;20499;-60
2021/12/02 12:48:25;;;;;;;3.50;3.23;;;7.90;99.90;;;;;;5083395;28;20435;-64
2021/12/02 12:50:51;;;;;;;4.20;3.90;;;8.40;99.90;;;;;;5073174;28;20447;-60
2021/12/02 12:53:34;;;;;;;5.63;3.07;;;9.10;99.90;;;;;;5089847;28;20451;-60
2021/12/02 12:56:08;;;;;;;3.50;3.30;;;9.80;99.90;;;;;;5089518;28;20912;-60
2021/12/02 12:58:37;;;;;;;3.80;3.60;;;10.40;99.90;;;;;;5089467;28;20506;-60
2021/12/02 13:01:19;;;;;;;4.70;3.67;;;10.80;99.90;;;;;;5090102;28;20458;-55
2021/12/02 13:04:03;;;;;;;3.47;3.27;;;11.00;99.90;;;;;;5091067;28;20468;-60
2021/12/02 13:06:32;;;;;;;4.10;3.80;;;10.90;99.90;;;;;;5075349;28;21054;-62
2021/12/02 13:09:02;;;;;;;3.60;3.30;;;11.00;99.90;;;;;;5086357;28;20928;-59
2021/12/02 13:11:31;;;;;;;4.53;3.60;;;11.20;99.90;;;;;;5057740;28;20906;-59
2021/12/02 13:13:58;;;;;;;3.57;3.37;;;11.60;99.90;;;;;;5068728;28;20430;-61
2021/12/02 13:16:23;;;;;;;3.80;3.50;;;12.10;99.90;;;;;;5086849;28;20944;-60
2021/12/02 13:18:54;;;;;;;3.57;3.37;;;12.40;99.90;;;;;;5071527;28;20419;-63
2021/12/02 13:21:29;;;;;;;3.63;3.30;;;12.50;99.90;;;;;;5090668;28;20222;-60
2021/12/02 13:23:54;;;;;;;3.60;3.30;;;12.50;99.90;;;;;;5083087;28;20450;-61
2021/12/02 13:26:22;;;;;;;3.87;3.57;;;12.30;99.90;;;;;;5089626;28;20411;-61